Time;durP1;ratioP1;P1;durP2;ratioP2;P2;SDS_P1;SDS_P2;PMS_P1;PMS_P2;Temp;Humidity;BMP_temperature;BMP_pressure;BME280_temperature;BME280_humidity;BME280_pressure;Samples;Min_cycle;Max_cycle;Signal;HPM_P1;HPM_P2
2023/11/24 00:00:58;;;;;;;;;;;;;;;;;;5000001;28;21056;-66
2023/11/24 00:03:24;;;;;;;;;;;;;;;;;;5000298;28;19913;-66
2023/11/24 00:05:50;;;;;;;;;;;;;;;;;;4996107;28;20638;-66
2023/11/24 00:08:16;;;;;;;;;;;;;;;;;;4996282;28;19921;-66
2023/11/24 00:10:43;;;;;;;;;;;;;;;;;;4999891;28;19917;-65
2023/11/24 00:13:09;;;;;;;;;;;;;;;;;;4997561;28;20531;-64
2023/11/24 00:15:36;;;;;;;;;;;;;;;;;;4987820;28;19913;-69
2023/11/24 00:18:02;;;;;;;;;;;;;;;;;;5010717;28;20434;-67
2023/11/24 00:20:29;;;;;;;;;;;;;;;;;;4996999;28;19909;-65
2023/11/24 00:22:55;;;;;;;;;;;;;;;;;;4996972;28;19951;-65
2023/11/24 00:25:23;;;;;;;;;;;;;;;;;;4996809;28;20484;-64
2023/11/24 00:27:51;;;;;;;;;;;;;;;;;;4995450;28;19952;-65
2023/11/24 00:30:17;;;;;;;;;;;;;;;;;;4998049;28;19970;-67
2023/11/24 00:32:45;;;;;;;;;;;;;;;;;;4990518;28;20283;-67
2023/11/24 00:35:10;;;;;;;;;;;;;;;;;;4999505;28;20110;-67
2023/11/24 00:37:36;;;;;;;;;;;;;;;;;;4993073;28;20032;-67
2023/11/24 00:40:03;;;;;;;;;;;;;;;;;;4998225;28;20031;-64
2023/11/24 00:42:32;;;;;;;;;;;;;;;;;;4994444;28;20559;-65
2023/11/24 00:44:58;;;;;;;;;;;;;;;;;;4992967;28;20483;-65
2023/11/24 00:47:25;;;;;;;;;;;;;;;;;;4991706;28;19913;-65
2023/11/24 00:49:50;;;;;;;;;;;;;;;;;;5008119;28;19917;-65
2023/11/24 00:52:16;;;;;;;;;;;;;;;;;;4968593;28;19951;-65
2023/11/24 00:54:42;;;;;;;;;;;;;;;;;;4987440;28;20125;-67
2023/11/24 00:57:09;;;;;;;;;;;;;;;;;;5004903;28;20276;-67
2023/11/24 00:59:35;;;;;;;;;;;;;;;;;;5004008;28;20216;-65
2023/11/24 01:02:01;;;;;;;;;;;;;;;;;;5002353;28;19913;-65
2023/11/24 01:04:27;;;;;;;;;;;;;;;;;;5017890;28;20348;-70
2023/11/24 01:06:53;;;;;;;;;;;;;;;;;;5000633;28;20202;-66
2023/11/24 01:09:19;;;;;;;;;;;;;;;;;;5016509;28;19921;-65
2023/11/24 01:11:45;;;;;;;;;;;;;;;;;;5011198;28;19914;-65
2023/11/24 01:14:11;;;;;;;;;;;;;;;;;;5003522;28;19913;-65
2023/11/24 01:16:37;;;;;;;;;;;;;;;;;;5012094;28;20311;-67
2023/11/24 01:19:06;;;;;;;;;;;;;;;;;;5003496;28;19920;-67
2023/11/24 01:21:32;;;;;;;;;;;;;;;;;;4999575;28;20409;-66
2023/11/24 01:24:02;;;;;;;;;;;;;;;;;;5001160;28;19913;-66
2023/11/24 01:26:28;;;;;;;;;;;;;;;;;;5004277;28;19924;-66
2023/11/24 01:28:54;;;;;;;;;;;;;;;;;;4961833;28;19917;-67
2023/11/24 01:31:20;;;;;;;;;;;;;;;;;;4961282;28;20032;-67
2023/11/24 01:33:46;;;;;;;;;;;;;;;;;;4964625;28;20025;-66
2023/11/24 01:36:12;;;;;;;;;;;;;;;;;;4964840;28;19940;-67
2023/11/24 01:38:38;;;;;;;;;;;;;;;;;;4965222;28;20596;-66
2023/11/24 01:41:04;;;;;;;;;;;;;;;;;;4964045;28;19923;-66
2023/11/24 01:43:30;;;;;;;;;;;;;;;;;;4962598;28;20720;-67
2023/11/24 01:45:56;;;;;;;;;;;;;;;;;;4965153;28;19913;-66
2023/11/24 01:48:22;;;;;;;;;;;;;;;;;;4959550;28;20465;-67
2023/11/24 01:50:48;;;;;;;;;;;;;;;;;;4960078;28;19913;-66
2023/11/24 01:53:14;;;;;;;;;;;;;;;;;;4963454;28;19967;-66
2023/11/24 01:55:40;;;;;;;;;;;;;;;;;;4963599;28;19924;-67
2023/11/24 01:58:06;;;;;;;;;;;;;;;;;;4961164;28;20419;-67
2023/11/24 02:00:33;;;;;;;;;;;;;;;;;;4963429;28;20966;-66
2023/11/24 02:02:59;;;;;;;;;;;;;;;;;;4965809;28;19912;-66
2023/11/24 02:05:25;;;;;;;;;;;;;;;;;;4990995;28;19966;-67
2023/11/24 02:07:51;;;;;;;;;;;;;;;;;;4999572;28;20017;-66
2023/11/24 02:10:17;;;;;;;;;;;;;;;;;;5005548;28;19957;-67
2023/11/24 02:12:43;;;;;;;;;;;;;;;;;;4998179;28;20228;-66
2023/11/24 02:15:09;;;;;;;;;;;;;;;;;;5004959;28;19921;-66
2023/11/24 02:17:35;;;;;;;;;;;;;;;;;;4998235;28;20306;-65
2023/11/24 02:20:05;;;;;;;;;;;;;;;;;;5016591;28;19917;-65
2023/11/24 02:22:31;;;;;;;;;;;;;;;;;;4999168;28;20324;-66
2023/11/24 02:24:57;;;;;;;;;;;;;;;;;;5000010;28;19916;-65
2023/11/24 02:27:23;;;;;;;;;;;;;;;;;;4998592;28;20358;-65
2023/11/24 02:29:50;;;;;;;;;;;;;;;;;;4996986;28;19921;-64
2023/11/24 02:32:18;;;;;;;;;;;;;;;;;;5002549;28;19920;-65
2023/11/24 02:34:44;;;;;;;;;;;;;;;;;;5003234;28;19917;-65
2023/11/24 02:37:10;;;;;;;;;;;;;;;;;;5006646;28;20339;-65
2023/11/24 02:39:36;;;;;;;;;;;;;;;;;;5001350;28;20156;-67
2023/11/24 02:42:02;;;;;;;;;;;;;;;;;;5000344;28;20363;-65
2023/11/24 02:44:28;;;;;;;;;;;;;;;;;;5007648;28;19920;-65
2023/11/24 02:46:55;;;;;;;;;;;;;;;;;;5003102;28;19919;-66
2023/11/24 02:49:21;;;;;;;;;;;;;;;;;;5004420;28;19921;-66
2023/11/24 02:51:47;;;;;;;;;;;;;;;;;;5001180;28;20737;-65
2023/11/24 02:54:13;;;;;;;;;;;;;;;;;;5009114;28;19913;-65
2023/11/24 02:56:39;;;;;;;;;;;;;;;;;;5000797;28;19913;-65
2023/11/24 02:59:05;;;;;;;;;;;;;;;;;;5021685;28;19917;-66
2023/11/24 03:01:31;;;;;;;;;;;;;;;;;;4998975;28;20027;-65
2023/11/24 03:03:57;;;;;;;;;;;;;;;;;;5009008;28;20113;-65
2023/11/24 03:06:23;;;;;;;;;;;;;;;;;;5001038;28;19913;-66
2023/11/24 03:08:49;;;;;;;;;;;;;;;;;;5002518;28;19929;-67
2023/11/24 03:11:15;;;;;;;;;;;;;;;;;;5010370;28;20421;-65
2023/11/24 03:13:41;;;;;;;;;;;;;;;;;;4983378;28;19917;-67
2023/11/24 03:16:07;;;;;;;;;;;;;;;;;;5001441;28;19920;-67
2023/11/24 03:18:33;;;;;;;;;;;;;;;;;;5004046;28;19923;-65
2023/11/24 03:20:59;;;;;;;;;;;;;;;;;;5004714;28;20352;-66
2023/11/24 03:23:25;;;;;;;;;;;;;;;;;;5003313;28;20608;-66
2023/11/24 03:25:51;;;;;;;;;;;;;;;;;;4996372;28;19913;-65
2023/11/24 03:28:18;;;;;;;;;;;;;;;;;;5000700;28;20001;-65
2023/11/24 03:30:44;;;;;;;;;;;;;;;;;;4997240;28;20000;-65
2023/11/24 03:33:11;;;;;;;;;;;;;;;;;;5005259;28;20235;-66
2023/11/24 03:35:37;;;;;;;;;;;;;;;;;;5000013;28;20148;-66
2023/11/24 03:38:03;;;;;;;;;;;;;;;;;;5004351;28;20495;-66
2023/11/24 03:40:29;;;;;;;;;;;;;;;;;;5005380;28;20192;-65
2023/11/24 03:42:55;;;;;;;;;;;;;;;;;;5000779;28;20044;-65
2023/11/24 03:45:21;;;;;;;;;;;;;;;;;;5002657;28;20288;-66
2023/11/24 03:47:47;;;;;;;;;;;;;;;;;;4994030;28;19917;-66
2023/11/24 03:50:14;;;;;;;;;;;;;;;;;;5002579;28;19917;-66
2023/11/24 03:52:39;;;;;;;;;;;;;;;;;;5001610;28;20521;-66
2023/11/24 03:55:07;;;;;;;;;;;;;;;;;;5004035;28;19928;-66
2023/11/24 03:57:33;;;;;;;;;;;;;;;;;;4999037;28;19913;-65
2023/11/24 03:59:59;;;;;;;;;;;;;;;;;;4986001;28;19920;-66
2023/11/24 04:02:25;;;;;;;;;;;;;;;;;;5000057;28;20042;-66
2023/11/24 04:04:51;;;;;;;;;;;;;;;;;;4998207;28;19936;-66
2023/11/24 04:07:17;;;;;;;;;;;;;;;;;;5005220;28;19917;-66
2023/11/24 04:09:43;;;;;;;;;;;;;;;;;;5001118;28;19964;-66
2023/11/24 04:12:09;;;;;;;;;;;;;;;;;;5005101;28;20453;-65
2023/11/24 04:14:35;;;;;;;;;;;;;;;;;;5002370;28;20413;-65
2023/11/24 04:17:01;;;;;;;;;;;;;;;;;;5003411;28;19990;-68
2023/11/24 04:19:27;;;;;;;;;;;;;;;;;;5002255;28;20015;-66
2023/11/24 04:21:53;;;;;;;;;;;;;;;;;;4999614;28;20110;-65
2023/11/24 04:24:19;;;;;;;;;;;;;;;;;;5000530;28;20357;-65
2023/11/24 04:26:45;;;;;;;;;;;;;;;;;;5000801;28;19913;-65
2023/11/24 04:29:11;;;;;;;;;;;;;;;;;;5006719;28;19917;-65
2023/11/24 04:31:37;;;;;;;;;;;;;;;;;;4999703;28;19967;-67
2023/11/24 04:34:03;;;;;;;;;;;;;;;;;;5003353;28;20003;-65
2023/11/24 04:36:29;;;;;;;;;;;;;;;;;;5011052;28;19996;-67
2023/11/24 04:38:56;;;;;;;;;;;;;;;;;;4983886;28;20015;-65
2023/11/24 04:41:22;;;;;;;;;;;;;;;;;;5001681;28;20068;-66
2023/11/24 04:43:48;;;;;;;;;;;;;;;;;;4994257;28;20419;-65
2023/11/24 04:46:14;;;;;;;;;;;;;;;;;;5006255;28;20363;-65
2023/11/24 04:48:40;;;;;;;;;;;;;;;;;;4995621;28;20581;-65
2023/11/24 04:51:06;;;;;;;;;;;;;;;;;;5002308;28;20268;-65
2023/11/24 04:53:32;;;;;;;;;;;;;;;;;;5001833;28;20020;-65
2023/11/24 04:55:58;;;;;;;;;;;;;;;;;;5000646;28;20381;-66
2023/11/24 04:58:24;;;;;;;;;;;;;;;;;;5003931;28;20263;-65
2023/11/24 05:00:50;;;;;;;;;;;;;;;;;;4999347;28;19967;-66
2023/11/24 05:03:16;;;;;;;;;;;;;;;;;;5005316;28;19966;-66
2023/11/24 05:05:42;;;;;;;;;;;;;;;;;;5000667;28;20261;-67
2023/11/24 05:08:08;;;;;;;;;;;;;;;;;;4998391;28;20336;-66
2023/11/24 05:10:34;;;;;;;;;;;;;;;;;;4997620;28;19925;-66
2023/11/24 05:13:00;;;;;;;;;;;;;;;;;;4984135;28;20250;-66
2023/11/24 05:15:26;;;;;;;;;;;;;;;;;;4982413;28;19995;-66
2023/11/24 05:17:52;;;;;;;;;;;;;;;;;;4978779;28;19910;-67
2023/11/24 05:20:18;;;;;;;;;;;;;;;;;;4985229;28;19983;-65
2023/11/24 05:22:44;;;;;;;;;;;;;;;;;;4980775;28;20307;-67
2023/11/24 05:25:10;;;;;;;;;;;;;;;;;;4984071;28;19917;-65
2023/11/24 05:27:37;;;;;;;;;;;;;;;;;;4979505;28;19916;-66
2023/11/24 05:30:07;;;;;;;;;;;;;;;;;;4985612;28;19917;-65
2023/11/24 05:32:34;;;;;;;;;;;;;;;;;;4980851;28;20285;-65
2023/11/24 05:35:00;;;;;;;;;;;;;;;;;;5013320;28;19920;-65
2023/11/24 05:37:27;;;;;;;;;;;;;;;;;;4987973;28;20010;-65
2023/11/24 05:39:53;;;;;;;;;;;;;;;;;;4995520;28;20387;-67
2023/11/24 05:42:19;;;;;;;;;;;;;;;;;;4988272;28;19980;-66
2023/11/24 05:44:44;;;;;;;;;;;;;;;;;;4981489;28;20032;-66
2023/11/24 05:47:10;;;;;;;;;;;;;;;;;;4986328;28;20052;-67
2023/11/24 05:49:40;;;;;;;;;;;;;;;;;;4981841;28;19918;-64
2023/11/24 05:52:14;;;;;;;;;;;;;;;;;;4978484;28;20601;-67
2023/11/24 05:54:40;;;;;;;;;;;;;;;;;;4982509;28;20003;-65
2023/11/24 05:57:06;;;;;;;;;;;;;;;;;;4982086;28;20494;-65
2023/11/24 05:59:32;;;;;;;;;;;;;;;;;;4994868;28;19913;-65
2023/11/24 06:01:58;;;;;;;;;;;;;;;;;;4981630;28;19920;-66
2023/11/24 06:04:24;;;;;;;;;;;;;;;;;;4985496;28;20368;-67
2023/11/24 06:06:50;;;;;;;;;;;;;;;;;;4985009;28;20415;-66
2023/11/24 06:09:16;;;;;;;;;;;;;;;;;;5006576;28;19921;-65
2023/11/24 06:11:42;;;;;;;;;;;;;;;;;;5000313;28;20015;-68
2023/11/24 06:14:08;;;;;;;;;;;;;;;;;;5006068;28;20185;-66
2023/11/24 06:16:34;;;;;;;;;;;;;;;;;;4998446;28;20108;-65
2023/11/24 06:19:00;;;;;;;;;;;;;;;;;;5003996;28;19962;-67
2023/11/24 06:21:26;;;;;;;;;;;;;;;;;;5022565;28;20008;-65
2023/11/24 06:23:52;;;;;;;;;;;;;;;;;;5001900;28;20235;-66
2023/11/24 06:26:18;;;;;;;;;;;;;;;;;;5002611;28;19909;-67
2023/11/24 06:28:44;;;;;;;;;;;;;;;;;;5005109;28;20731;-67
2023/11/24 06:31:10;;;;;;;;;;;;;;;;;;5003169;28;19967;-67
2023/11/24 06:33:36;;;;;;;;;;;;;;;;;;5001743;28;19917;-68
2023/11/24 06:36:02;;;;;;;;;;;;;;;;;;5004444;28;19912;-67
2023/11/24 06:38:29;;;;;;;;;;;;;;;;;;5019042;28;19975;-66
2023/11/24 06:40:56;;;;;;;;;;;;;;;;;;5005051;28;20110;-67
2023/11/24 06:43:21;;;;;;;;;;;;;;;;;;5007940;28;19913;-67
2023/11/24 06:45:47;;;;;;;;;;;;;;;;;;4999809;28;20157;-67
2023/11/24 06:48:13;;;;;;;;;;;;;;;;;;5004048;28;19912;-65
2023/11/24 06:50:39;;;;;;;;;;;;;;;;;;4999187;28;19913;-65
2023/11/24 06:53:05;;;;;;;;;;;;;;;;;;5006755;28;19951;-66
2023/11/24 06:55:31;;;;;;;;;;;;;;;;;;4999343;28;19912;-66
2023/11/24 06:57:58;;;;;;;;;;;;;;;;;;5005014;28;19913;-66
2023/11/24 07:00:25;;;;;;;;;;;;;;;;;;5003791;28;19913;-66
2023/11/24 07:02:51;;;;;;;;;;;;;;;;;;4988292;28;19921;-66
2023/11/24 07:05:17;;;;;;;;;;;;;;;;;;4978802;28;19920;-67
2023/11/24 07:07:43;;;;;;;;;;;;;;;;;;4992578;28;19952;-65
2023/11/24 07:10:13;;;;;;;;;;;;;;;;;;4986152;28;20265;-67
2023/11/24 07:12:39;;;;;;;;;;;;;;;;;;4990041;28;20304;-67
2023/11/24 07:15:04;;;;;;;;;;;;;;;;;;4999489;28;20331;-64
2023/11/24 07:17:31;;;;;;;;;;;;;;;;;;4999752;28;19945;-67
2023/11/24 07:19:57;;;;;;;;;;;;;;;;;;5004485;28;19910;-66
2023/11/24 07:22:24;;;;;;;;;;;;;;;;;;5001190;28;19920;-66
2023/11/24 07:24:50;;;;;;;;;;;;;;;;;;5001692;28;20449;-66
2023/11/24 07:27:17;;;;;;;;;;;;;;;;;;5017273;28;19913;-66
2023/11/24 07:29:43;;;;;;;;;;;;;;;;;;4999169;28;19983;-67
2023/11/24 07:32:11;;;;;;;;;;;;;;;;;;5003315;28;19970;-66
2023/11/24 07:34:37;;;;;;;;;;;;;;;;;;4996732;28;19925;-65
2023/11/24 07:37:03;;;;;;;;;;;;;;;;;;4998685;28;19921;-66
2023/11/24 07:39:29;;;;;;;;;;;;;;;;;;4975062;28;19928;-65
2023/11/24 07:41:56;;;;;;;;;;;;;;;;;;4981584;28;20394;-67
2023/11/24 07:44:23;;;;;;;;;;;;;;;;;;4966037;28;19971;-66
2023/11/24 07:46:49;;;;;;;;;;;;;;;;;;4966057;28;20471;-66
2023/11/24 07:49:15;;;;;;;;;;;;;;;;;;4966363;28;19917;-66
2023/11/24 07:51:41;;;;;;;;;;;;;;;;;;4969717;28;19912;-65
2023/11/24 07:54:07;;;;;;;;;;;;;;;;;;4967681;28;20254;-67
2023/11/24 07:56:33;;;;;;;;;;;;;;;;;;4969652;28;19909;-67
2023/11/24 07:59:00;;;;;;;;;;;;;;;;;;4965479;28;19913;-65
2023/11/24 08:01:26;;;;;;;;;;;;;;;;;;4970469;28;20492;-66
2023/11/24 08:03:53;;;;;;;;;;;;;;;;;;4965410;28;19917;-65
2023/11/24 08:06:19;;;;;;;;;;;;;;;;;;4969840;28;20216;-67
2023/11/24 08:08:45;;;;;;;;;;;;;;;;;;4970068;28;19924;-66
2023/11/24 08:11:11;;;;;;;;;;;;;;;;;;4970643;28;19917;-66
2023/11/24 08:13:37;;;;;;;;;;;;;;;;;;4969833;28;20619;-66
2023/11/24 08:16:03;;;;;;;;;;;;;;;;;;4996237;28;19921;-66
2023/11/24 08:18:29;;;;;;;;;;;;;;;;;;5019671;28;19917;-65
2023/11/24 08:20:58;;;;;;;;;;;;;;;;;;5016764;28;20057;-67
2023/11/24 08:23:23;;;;;;;;;;;;;;;;;;5001974;28;20255;-68
2023/11/24 08:25:50;;;;;;;;;;;;;;;;;;5001446;28;19913;-66
2023/11/24 08:28:16;;;;;;;;;;;;;;;;;;5008329;28;20331;-65
2023/11/24 08:30:43;;;;;;;;;;;;;;;;;;4999898;28;19920;-66
2023/11/24 08:33:09;;;;;;;;;;;;;;;;;;5019735;28;19960;-67
2023/11/24 08:35:35;;;;;;;;;;;;;;;;;;5000582;28;19917;-68
2023/11/24 08:38:03;;;;;;;;;;;;;;;;;;5002270;28;19913;-67
2023/11/24 08:40:30;;;;;;;;;;;;;;;;;;5003998;28;19963;-67
2023/11/24 08:42:55;;;;;;;;;;;;;;;;;;5003190;28;19913;-70
2023/11/24 08:45:22;;;;;;;;;;;;;;;;;;5004452;28;19920;-67
2023/11/24 08:47:49;;;;;;;;;;;;;;;;;;5001483;28;19970;-67
2023/11/24 08:50:16;;;;;;;;;;;;;;;;;;5004638;28;20489;-68
2023/11/24 08:52:42;;;;;;;;;;;;;;;;;;5000823;28;19921;-68
2023/11/24 08:55:09;;;;;;;;;;;;;;;;;;5002860;28;20005;-67
2023/11/24 08:57:35;;;;;;;;;;;;;;;;;;5001904;28;19940;-67
2023/11/24 09:00:01;;;;;;;;;;;;;;;;;;5001350;28;19928;-67
2023/11/24 09:02:28;;;;;;;;;;;;;;;;;;5001249;28;20322;-68
2023/11/24 09:04:54;;;;;;;;;;;;;;;;;;5001434;28;20146;-66
2023/11/24 09:07:20;;;;;;;;;;;;;;;;;;5005269;28;19995;-67
2023/11/24 09:09:46;;;;;;;;;;;;;;;;;;5000380;28;20354;-67
2023/11/24 09:12:15;;;;;;;;;;;;;;;;;;5003555;28;20414;-67
2023/11/24 09:14:41;;;;;;;;;;;;;;;;;;4998982;28;19913;-67
2023/11/24 09:17:07;;;;;;;;;;;;;;;;;;5002680;28;19920;-69
2023/11/24 09:19:33;;;;;;;;;;;;;;;;;;4996891;28;19913;-68
2023/11/24 09:22:00;;;;;;;;;;;;;;;;;;5006164;28;20331;-66
2023/11/24 09:24:26;;;;;;;;;;;;;;;;;;5001481;28;20367;-66
2023/11/24 09:26:55;;;;;;;;;;;;;;;;;;4998713;28;20182;-66
2023/11/24 09:29:21;;;;;;;;;;;;;;;;;;5002047;28;19990;-68
2023/11/24 09:31:47;;;;;;;;;;;;;;;;;;5003232;28;19921;-65
2023/11/24 09:34:13;;;;;;;;;;;;;;;;;;5001990;28;19979;-66
2023/11/24 09:36:41;;;;;;;;;;;;;;;;;;4997564;28;20180;-66
2023/11/24 09:39:07;;;;;;;;;;;;;;;;;;5002403;28;20222;-66
2023/11/24 09:41:33;;;;;;;;;;;;;;;;;;5000329;28;20387;-67
2023/11/24 09:43:59;;;;;;;;;;;;;;;;;;4990486;28;20238;-67
2023/11/24 09:46:25;;;;;;;;;;;;;;;;;;5009698;28;20349;-67
2023/11/24 09:48:52;;;;;;;;;;;;;;;;;;5001929;28;19967;-68
2023/11/24 09:51:18;;;;;;;;;;;;;;;;;;5009294;28;20663;-67
2023/11/24 09:53:44;;;;;;;;;;;;;;;;;;5006880;28;19913;-68
2023/11/24 09:56:10;;;;;;;;;;;;;;;;;;5009352;28;20015;-67
2023/11/24 09:58:36;;;;;;;;;;;;;;;;;;5003623;28;20033;-68
2023/11/24 10:01:05;;;;;;;;;;;;;;;;;;5007350;28;19912;-68
2023/11/24 10:03:31;;;;;;;;;;;;;;;;;;5002843;28;20375;-68
2023/11/24 10:05:57;;;;;;;;;;;;;;;;;;5006666;28;19913;-67
2023/11/24 10:08:23;;;;;;;;;;;;;;;;;;5006433;28;19921;-65
2023/11/24 10:10:49;;;;;;;;;;;;;;;;;;5005362;28;20426;-68
2023/11/24 10:13:15;;;;;;;;;;;;;;;;;;5006790;28;19920;-66
2023/11/24 10:15:41;;;;;;;;;;;;;;;;;;4987903;28;19913;-66
2023/11/24 10:18:07;;;;;;;;;;;;;;;;;;5005484;28;19913;-67
2023/11/24 10:20:35;;;;;;;;;;;;;;;;;;5002643;28;19933;-68
2023/11/24 10:23:03;;;;;;;;;;;;;;;;;;5006993;28;19916;-67
2023/11/24 10:25:33;;;;;;;;;;;;;;;;;;5003150;28;19916;-68
2023/11/24 10:28:07;;;;;;;;;;;;;;;;;;5005277;28;19913;-67
2023/11/24 10:30:34;;;;;;;;;;;;;;;;;;5004770;28;20450;-66
2023/11/24 10:33:00;;;;;;;;;;;;;;;;;;5001558;28;20340;-67
2023/11/24 10:35:26;;;;;;;;;;;;;;;;;;5007156;28;20355;-67
2023/11/24 10:37:52;;;;;;;;;;;;;;;;;;5001071;28;19913;-67
2023/11/24 10:40:18;;;;;;;;;;;;;;;;;;5004421;28;20504;-66
2023/11/24 10:42:47;;;;;;;;;;;;;;;;;;5007313;28;20074;-66
2023/11/24 10:45:15;;;;;;;;;;;;;;;;;;4990557;28;19928;-68
2023/11/24 10:47:43;;;;;;;;;;;;;;;;;;5003524;28;20060;-66
2023/11/24 10:50:12;;;;;;;;;;;;;;;;;;5002849;28;20022;-66
2023/11/24 10:52:38;;;;;;;;;;;;;;;;;;5004743;28;20383;-67
2023/11/24 10:55:04;;;;;;;;;;;;;;;;;;5007604;28;19975;-68
2023/11/24 10:57:30;;;;;;;;;;;;;;;;;;5019537;28;19917;-66
2023/11/24 10:59:56;;;;;;;;;;;;;;;;;;5006587;28;19913;-67
2023/11/24 11:02:22;;;;;;;;;;;;;;;;;;5003550;28;20003;-67
2023/11/24 11:04:52;;;;;;;;;;;;;;;;;;5003142;28;20498;-68
2023/11/24 11:07:18;;;;;;;;;;;;;;;;;;5007814;28;20477;-68
2023/11/24 11:09:58;;;;;;;;;;;;;;;;;;5003265;28;19936;-67
2023/11/24 11:12:31;;;;;;;;;;;;;;;;;;5015638;28;20160;-68
2023/11/24 11:14:57;;;;;;;;;;;;;;;;;;5009554;28;19917;-68
2023/11/24 11:17:25;;;;;;;;;;;;;;;;;;5004920;28;20434;-68
2023/11/24 11:19:51;;;;;;;;;;;;;;;;;;5007493;28;20600;-69
2023/11/24 11:22:17;;;;;;;;;;;;;;;;;;5006030;28;20597;-67
2023/11/24 11:24:43;;;;;;;;;;;;;;;;;;5007129;28;19921;-67
2023/11/24 11:27:09;;;;;;;;;;;;;;;;;;5005667;28;19924;-69
2023/11/24 11:29:36;;;;;;;;;;;;;;;;;;5002063;28;19921;-68
2023/11/24 11:32:04;;;;;;;;;;;;;;;;;;5006472;28;19919;-67
2023/11/24 11:34:30;;;;;;;;;;;;;;;;;;5003350;28;20315;-67
2023/11/24 11:36:56;;;;;;;;;;;;;;;;;;4986162;28;19914;-67
2023/11/24 11:39:27;;;;;;;;;;;;;;;;;;5003484;28;19920;-68
2023/11/24 11:41:54;;;;;;;;;;;;;;;;;;5001992;28;19913;-67
2023/11/24 11:44:22;;;;;;;;;;;;;;;;;;5003865;28;19955;-68
2023/11/24 11:46:48;;;;;;;;;;;;;;;;;;5005601;28;19952;-67
2023/11/24 11:49:14;;;;;;;;;;;;;;;;;;5004112;28;20344;-67
2023/11/24 11:51:40;;;;;;;;;;;;;;;;;;5002351;28;20008;-67
2023/11/24 11:54:06;;;;;;;;;;;;;;;;;;4999469;28;19916;-68
2023/11/24 11:56:32;;;;;;;;;;;;;;;;;;5019033;28;19913;-69
2023/11/24 11:59:00;;;;;;;;;;;;;;;;;;5020815;28;19917;-68
2023/11/24 12:01:26;;;;;;;;;;;;;;;;;;5002921;28;19935;-68
2023/11/24 12:03:52;;;;;;;;;;;;;;;;;;5001922;28;19924;-67
2023/11/24 12:06:19;;;;;;;;;;;;;;;;;;5004128;28;20367;-67
2023/11/24 12:08:45;;;;;;;;;;;;;;;;;;5005013;28;20342;-68
2023/11/24 12:11:11;;;;;;;;;;;;;;;;;;5010077;28;19917;-67
2023/11/24 12:13:37;;;;;;;;;;;;;;;;;;5001908;28;19913;-67
2023/11/24 12:16:04;;;;;;;;;;;;;;;;;;5008066;28;19948;-67
2023/11/24 12:18:30;;;;;;;;;;;;;;;;;;5002796;28;19916;-67
2023/11/24 12:20:56;;;;;;;;;;;;;;;;;;5003392;28;19917;-68
2023/11/24 12:23:23;;;;;;;;;;;;;;;;;;5006872;28;19963;-68
2023/11/24 12:25:49;;;;;;;;;;;;;;;;;;5005191;28;20011;-67
2023/11/24 12:28:16;;;;;;;;;;;;;;;;;;5005354;28;19909;-67
2023/11/24 12:30:42;;;;;;;;;;;;;;;;;;5006284;28;19924;-67
2023/11/24 12:33:09;;;;;;;;;;;;;;;;;;5004316;28;19913;-67
2023/11/24 12:35:36;;;;;;;;;;;;;;;;;;4998704;28;20238;-67
2023/11/24 12:38:02;;;;;;;;;;;;;;;;;;5005718;28;19927;-67
2023/11/24 12:40:28;;;;;;;;;;;;;;;;;;5004401;28;19917;-67
2023/11/24 12:42:55;;;;;;;;;;;;;;;;;;5002008;28;19924;-67
2023/11/24 12:45:21;;;;;;;;;;;;;;;;;;5006049;28;19917;-68
2023/11/24 12:47:47;;;;;;;;;;;;;;;;;;5002612;28;19920;-68
2023/11/24 12:50:14;;;;;;;;;;;;;;;;;;5004438;28;19917;-68
2023/11/24 12:52:41;;;;;;;;;;;;;;;;;;5015193;28;19947;-69
2023/11/24 12:55:07;;;;;;;;;;;;;;;;;;5005936;28;20001;-69
2023/11/24 12:57:33;;;;;;;;;;;;;;;;;;4999604;28;20003;-67
2023/11/24 13:00:06;;;;;;;;;;;;;;;;;;5008140;28;19966;-67
2023/11/24 13:02:32;;;;;;;;;;;;;;;;;;5001789;28;20223;-67
2023/11/24 13:04:58;;;;;;;;;;;;;;;;;;5019636;28;19920;-67
2023/11/24 13:07:24;;;;;;;;;;;;;;;;;;4984620;28;20977;-67
2023/11/24 13:09:50;;;;;;;;;;;;;;;;;;4982691;28;19928;-68
2023/11/24 13:12:18;;;;;;;;;;;;;;;;;;4988678;28;19913;-68
2023/11/24 13:14:44;;;;;;;;;;;;;;;;;;4984820;28;19964;-67
2023/11/24 13:17:11;;;;;;;;;;;;;;;;;;5002229;28;20085;-67
2023/11/24 13:19:37;;;;;;;;;;;;;;;;;;4983267;28;19913;-67
2023/11/24 13:22:08;;;;;;;;;;;;;;;;;;4984004;28;20394;-68
2023/11/24 13:24:35;;;;;;;;;;;;;;;;;;4979552;28;20362;-67
2023/11/24 13:27:03;;;;;;;;;;;;;;;;;;4990543;28;19964;-68
2023/11/24 13:29:30;;;;;;;;;;;;;;;;;;4994521;28;19921;-67
2023/11/24 13:31:56;;;;;;;;;;;;;;;;;;4986335;28;20234;-67
2023/11/24 13:34:22;;;;;;;;;;;;;;;;;;4986519;28;19963;-67
2023/11/24 13:36:48;;;;;;;;;;;;;;;;;;4991774;28;20079;-68
2023/11/24 13:39:19;;;;;;;;;;;;;;;;;;4981366;28;19913;-66
2023/11/24 13:41:44;;;;;;;;;;;;;;;;;;4974979;28;19917;-68
2023/11/24 13:44:11;;;;;;;;;;;;;;;;;;4990896;28;20390;-67
2023/11/24 13:46:37;;;;;;;;;;;;;;;;;;4975421;28;19956;-68
2023/11/24 13:49:03;;;;;;;;;;;;;;;;;;4978169;28;19940;-69
2023/11/24 13:51:30;;;;;;;;;;;;;;;;;;4985937;28;19918;-67
2023/11/24 13:53:56;;;;;;;;;;;;;;;;;;5000748;28;20354;-67
2023/11/24 13:56:24;;;;;;;;;;;;;;;;;;4984994;28;19913;-67
2023/11/24 13:58:50;;;;;;;;;;;;;;;;;;4990207;28;20699;-67
2023/11/24 14:01:16;;;;;;;;;;;;;;;;;;4979143;28;20383;-67
2023/11/24 14:03:42;;;;;;;;;;;;;;;;;;4975871;28;20232;-67
2023/11/24 14:06:08;;;;;;;;;;;;;;;;;;4975341;28;19913;-67
2023/11/24 14:08:34;;;;;;;;;;;;;;;;;;4989084;28;20328;-66
2023/11/24 14:11:02;;;;;;;;;;;;;;;;;;4996203;28;19924;-67
2023/11/24 14:13:29;;;;;;;;;;;;;;;;;;4997838;28;20415;-67
2023/11/24 14:15:55;;;;;;;;;;;;;;;;;;4996356;28;19912;-68
2023/11/24 14:18:21;;;;;;;;;;;;;;;;;;4997815;28;20421;-68
2023/11/24 14:20:48;;;;;;;;;;;;;;;;;;5009948;28;19920;-68
2023/11/24 14:23:14;;;;;;;;;;;;;;;;;;4996478;28;19917;-68
2023/11/24 14:25:40;;;;;;;;;;;;;;;;;;4992980;28;20425;-68
2023/11/24 14:28:06;;;;;;;;;;;;;;;;;;4999432;28;19972;-68
2023/11/24 14:30:34;;;;;;;;;;;;;;;;;;4999042;28;19928;-67
2023/11/24 14:33:00;;;;;;;;;;;;;;;;;;4998820;28;20333;-67
2023/11/24 14:35:26;;;;;;;;;;;;;;;;;;5002768;28;19917;-67
2023/11/24 14:37:52;;;;;;;;;;;;;;;;;;4998638;28;19913;-67
2023/11/24 14:40:18;;;;;;;;;;;;;;;;;;4998525;28;20557;-68
2023/11/24 14:42:44;;;;;;;;;;;;;;;;;;5001178;28;20016;-68
2023/11/24 14:45:15;;;;;;;;;;;;;;;;;;5003755;28;20464;-66
2023/11/24 14:47:41;;;;;;;;;;;;;;;;;;5004566;28;19922;-68
2023/11/24 14:50:07;;;;;;;;;;;;;;;;;;5021544;28;20301;-68
2023/11/24 14:52:33;;;;;;;;;;;;;;;;;;4998297;28;19913;-67
2023/11/24 14:55:00;;;;;;;;;;;;;;;;;;5005613;28;20355;-66
2023/11/24 14:57:30;;;;;;;;;;;;;;;;;;5022944;28;19948;-67
2023/11/24 14:59:56;;;;;;;;;;;;;;;;;;5006417;28;19930;-67
2023/11/24 15:02:25;;;;;;;;;;;;;;;;;;5007339;28;19920;-67
2023/11/24 15:04:51;;;;;;;;;;;;;;;;;;5004358;28;19959;-67
2023/11/24 15:07:17;;;;;;;;;;;;;;;;;;5004125;28;20198;-67
2023/11/24 15:09:45;;;;;;;;;;;;;;;;;;5006006;28;20450;-67
2023/11/24 15:12:11;;;;;;;;;;;;;;;;;;5001686;28;19913;-67
2023/11/24 15:14:39;;;;;;;;;;;;;;;;;;5003712;28;19913;-67
2023/11/24 15:17:05;;;;;;;;;;;;;;;;;;5004337;28;19913;-67
2023/11/24 15:19:33;;;;;;;;;;;;;;;;;;5004266;28;20416;-67
2023/11/24 15:22:04;;;;;;;;;;;;;;;;;;4991576;28;19931;-67
2023/11/24 15:24:32;;;;;;;;;;;;;;;;;;5004454;28;20023;-68
2023/11/24 15:26:59;;;;;;;;;;;;;;;;;;5007120;28;20303;-66
2023/11/24 15:29:25;;;;;;;;;;;;;;;;;;4986403;28;19917;-68
2023/11/24 15:31:52;;;;;;;;;;;;;;;;;;5003127;28;19914;-69
2023/11/24 15:34:18;;;;;;;;;;;;;;;;;;5005943;28;19914;-68
2023/11/24 15:36:45;;;;;;;;;;;;;;;;;;5002780;28;19917;-69
2023/11/24 15:39:17;;;;;;;;;;;;;;;;;;5005055;28;19917;-67
2023/11/24 15:41:50;;;;;;;;;;;;;;;;;;5001863;28;20592;-68
2023/11/24 15:44:24;;;;;;;;;;;;;;;;;;5003893;28;20362;-68
2023/11/24 15:46:50;;;;;;;;;;;;;;;;;;5002104;28;19913;-69
2023/11/24 15:49:17;;;;;;;;;;;;;;;;;;5003201;28;19925;-68
2023/11/24 15:51:46;;;;;;;;;;;;;;;;;;5004762;28;20230;-68
2023/11/24 15:54:12;;;;;;;;;;;;;;;;;;5000807;28;19921;-68
2023/11/24 15:56:39;;;;;;;;;;;;;;;;;;5001612;28;20245;-69
2023/11/24 15:59:08;;;;;;;;;;;;;;;;;;5005890;28;19914;-69
2023/11/24 16:01:36;;;;;;;;;;;;;;;;;;5000802;28;20248;-68
2023/11/24 16:04:04;;;;;;;;;;;;;;;;;;5005811;28;20083;-68
2023/11/24 16:06:30;;;;;;;;;;;;;;;;;;5003033;28;19960;-68
2023/11/24 16:08:58;;;;;;;;;;;;;;;;;;5002088;28;20023;-66
2023/11/24 16:11:27;;;;;;;;;;;;;;;;;;5007527;28;19920;-67
2023/11/24 16:13:53;;;;;;;;;;;;;;;;;;5003317;28;19995;-68
2023/11/24 16:16:19;;;;;;;;;;;;;;;;;;5008114;28;19921;-67
2023/11/24 16:18:45;;;;;;;;;;;;;;;;;;5004636;28;19925;-67
2023/11/24 16:21:11;;;;;;;;;;;;;;;;;;5002701;28;19915;-70
2023/11/24 16:23:37;;;;;;;;;;;;;;;;;;5001008;28;20277;-69
2023/11/24 16:26:03;;;;;;;;;;;;;;;;;;5003496;28;20271;-67
2023/11/24 16:28:29;;;;;;;;;;;;;;;;;;5005015;28;19974;-67
2023/11/24 16:30:55;;;;;;;;;;;;;;;;;;5003807;28;19916;-68
2023/11/24 16:33:21;;;;;;;;;;;;;;;;;;5006037;28;20050;-67
2023/11/24 16:35:47;;;;;;;;;;;;;;;;;;4997255;28;19979;-67
2023/11/24 16:38:13;;;;;;;;;;;;;;;;;;5003897;28;20271;-68
2023/11/24 16:40:39;;;;;;;;;;;;;;;;;;5001588;28;19917;-69